createdAt,value
2019-02-27T00:00:38.180Z,0.00
2019-02-27T00:01:38.190Z,0.00
2019-02-27T00:02:38.237Z,0.00
2019-02-27T00:03:38.278Z,0.00
2019-02-27T00:04:38.363Z,0.00
2019-02-27T00:05:41.417Z,0.00
2019-02-27T00:06:38.401Z,0.00
2019-02-27T00:07:38.441Z,0.00
2019-02-27T00:08:38.482Z,0.00
2019-02-27T00:09:38.522Z,0.00
2019-02-27T00:10:39.282Z,0.00
2019-02-27T00:11:38.617Z,0.00
2019-02-27T00:12:38.656Z,0.00
2019-02-27T00:13:38.691Z,0.00
2019-02-27T00:14:38.764Z,0.00
2019-02-27T00:15:38.804Z,0.00
2019-02-27T00:16:38.814Z,0.00
2019-02-27T00:17:38.856Z,0.00
2019-02-27T00:18:38.915Z,0.00
2019-02-27T00:19:38.942Z,0.00
2019-02-27T00:20:39.004Z,0.00
2019-02-27T00:21:40.925Z,0.00
2019-02-27T00:22:39.061Z,0.00
2019-02-27T00:23:39.111Z,0.00
2019-02-27T00:24:39.146Z,0.00
2019-02-27T00:25:39.212Z,0.00
2019-02-27T00:26:39.521Z,0.00
2019-02-27T00:27:39.270Z,0.00
2019-02-27T00:28:39.310Z,0.00
2019-02-27T00:29:39.351Z,0.00
2019-02-27T00:30:39.402Z,0.00
2019-02-27T00:31:39.458Z,0.00
2019-02-27T00:32:39.477Z,0.00
2019-02-27T00:33:39.518Z,0.00
2019-02-27T00:34:39.568Z,0.00
2019-02-27T00:35:39.682Z,0.00
2019-02-27T00:36:39.639Z,0.00
2019-02-27T00:37:39.683Z,0.00
2019-02-27T00:38:39.721Z,0.00
2019-02-27T00:39:39.763Z,0.00
2019-02-27T00:40:39.824Z,0.00
2019-02-27T00:41:39.968Z,0.00
2019-02-27T00:42:39.886Z,0.00
2019-02-27T00:43:39.926Z,0.00
2019-02-27T00:44:39.970Z,0.00
2019-02-27T00:45:40.524Z,0.00
2019-02-27T00:46:40.091Z,0.00
2019-02-27T00:47:40.093Z,0.00
2019-02-27T00:48:40.131Z,0.00
2019-02-27T00:49:40.172Z,0.00
2019-02-27T00:50:40.215Z,0.00
2019-02-27T00:51:42.592Z,0.00
2019-02-27T00:52:40.298Z,0.00
2019-02-27T00:53:40.335Z,0.00
2019-02-27T00:54:40.377Z,0.00
2019-02-27T00:55:40.426Z,0.00
2019-02-27T00:56:44.836Z,0.00
2019-02-27T00:57:40.515Z,0.00
2019-02-27T00:58:40.570Z,0.00
2019-02-27T00:59:40.584Z,0.00
2019-02-27T01:00:40.639Z,0.00
2019-02-27T01:01:40.671Z,0.00
2019-02-27T01:02:40.724Z,0.00
2019-02-27T01:03:40.744Z,0.00
2019-02-27T01:04:40.788Z,0.00
2019-02-27T01:05:41.218Z,0.00
2019-02-27T01:06:40.866Z,0.00
2019-02-27T01:07:40.941Z,0.00
2019-02-27T01:08:40.963Z,0.00
2019-02-27T01:09:41.003Z,0.00
2019-02-27T01:10:42.882Z,0.00
2019-02-27T01:11:41.071Z,0.00
2019-02-27T01:12:41.132Z,0.00
2019-02-27T01:13:41.154Z,0.00
2019-02-27T01:14:41.200Z,0.00
2019-02-27T01:15:41.810Z,0.00
2019-02-27T01:16:41.277Z,0.00
2019-02-27T01:17:41.347Z,0.00
2019-02-27T01:18:41.358Z,0.00
2019-02-27T01:19:42.863Z,0.00
2019-02-27T01:20:45.702Z,0.00
2019-02-27T01:21:41.478Z,0.00
2019-02-27T01:22:41.556Z,0.00
2019-02-27T01:23:43.834Z,0.00
2019-02-27T01:24:41.596Z,0.00
2019-02-27T01:25:41.637Z,0.00
2019-02-27T01:26:41.678Z,0.00
2019-02-27T01:27:41.739Z,0.00
2019-02-27T01:28:44.712Z,0.00
2019-02-27T01:29:41.800Z,0.00
2019-02-27T01:30:41.841Z,0.00
2019-02-27T01:31:41.881Z,0.00
2019-02-27T01:32:41.920Z,0.00
2019-02-27T01:33:41.980Z,0.00
2019-02-27T01:34:44.256Z,0.00
2019-02-27T01:35:42.117Z,0.00
2019-02-27T01:36:42.083Z,0.00
2019-02-27T01:37:42.130Z,0.00
2019-02-27T01:38:42.184Z,0.00
2019-02-27T01:39:44.091Z,0.00
2019-02-27T01:40:42.243Z,0.00
2019-02-27T01:41:42.285Z,0.00
2019-02-27T01:42:42.398Z,0.00
2019-02-27T01:43:42.386Z,0.00
2019-02-27T01:44:44.001Z,0.00
2019-02-27T01:45:42.449Z,0.00
2019-02-27T01:46:42.487Z,0.00
2019-02-27T01:47:42.531Z,0.00
2019-02-27T01:48:43.628Z,0.00
2019-02-27T01:49:42.714Z,0.00
2019-02-27T01:50:42.666Z,0.00
2019-02-27T01:51:42.689Z,0.00
2019-02-27T01:52:42.737Z,0.00
2019-02-27T01:53:42.802Z,0.00
2019-02-27T01:54:42.831Z,0.00
2019-02-27T01:55:42.849Z,0.00
2019-02-27T01:56:42.893Z,0.00
2019-02-27T01:57:42.932Z,0.00
2019-02-27T01:58:44.100Z,0.00
2019-02-27T01:59:43.011Z,0.00
2019-02-27T02:00:43.053Z,0.00
2019-02-27T02:01:43.100Z,0.00
2019-02-27T02:02:43.135Z,0.00
2019-02-27T02:03:47.158Z,0.00
2019-02-27T02:04:43.212Z,0.00
2019-02-27T02:05:43.261Z,0.00
2019-02-27T02:06:43.292Z,0.00
2019-02-27T02:07:43.340Z,0.00
2019-02-27T02:08:47.899Z,0.00
2019-02-27T02:09:43.412Z,0.00
2019-02-27T02:10:43.500Z,0.00
2019-02-27T02:11:43.495Z,0.00
2019-02-27T02:12:43.537Z,0.00
2019-02-27T02:13:47.967Z,0.00
2019-02-27T02:14:43.623Z,0.00
2019-02-27T02:15:43.679Z,0.00
2019-02-27T02:16:43.695Z,0.00
2019-02-27T02:17:43.812Z,0.00
2019-02-27T02:18:45.740Z,0.00
2019-02-27T02:19:43.814Z,0.00
2019-02-27T02:20:43.883Z,0.00
2019-02-27T02:21:43.895Z,0.00
2019-02-27T02:22:43.936Z,0.00
2019-02-27T02:23:44.940Z,0.00
2019-02-27T02:24:44.039Z,0.00
2019-02-27T02:25:44.085Z,0.00
2019-02-27T02:26:44.095Z,0.00
2019-02-27T02:27:44.135Z,0.00
2019-02-27T02:28:48.036Z,0.00
2019-02-27T02:29:44.216Z,0.00
2019-02-27T02:30:44.291Z,0.00
2019-02-27T02:31:44.301Z,0.00
2019-02-27T02:32:44.335Z,0.00
2019-02-27T02:33:44.473Z,0.00
2019-02-27T02:34:44.414Z,0.00
2019-02-27T02:35:49.567Z,0.00
2019-02-27T02:36:44.497Z,0.00
2019-02-27T02:37:44.546Z,0.00
2019-02-27T02:38:44.584Z,0.00
2019-02-27T02:39:44.621Z,0.00
2019-02-27T02:40:44.814Z,0.00
2019-02-27T02:41:48.026Z,0.00
2019-02-27T02:42:44.738Z,0.00
2019-02-27T02:43:44.779Z,0.00
2019-02-27T02:44:44.825Z,0.00
2019-02-27T02:45:44.876Z,0.00
2019-02-27T02:46:45.325Z,0.00
2019-02-27T02:47:44.935Z,0.00
2019-02-27T02:48:44.991Z,0.00
2019-02-27T02:49:45.016Z,0.00
2019-02-27T02:50:45.100Z,0.00
2019-02-27T02:51:45.122Z,0.00
2019-02-27T02:52:45.135Z,0.00
2019-02-27T02:53:45.187Z,0.00
2019-02-27T02:54:45.213Z,0.00
2019-02-27T02:55:48.802Z,0.00
2019-02-27T02:56:45.322Z,0.00
2019-02-27T02:57:45.356Z,0.00
2019-02-27T02:58:48.274Z,0.00
2019-02-27T02:59:45.420Z,0.00
2019-02-27T03:00:45.458Z,0.00
2019-02-27T03:01:45.578Z,0.00
2019-02-27T03:02:45.566Z,0.00
2019-02-27T03:03:45.574Z,0.00
2019-02-27T03:04:48.460Z,0.00
2019-02-27T03:05:45.664Z,0.00
2019-02-27T03:06:45.697Z,0.00
2019-02-27T03:07:45.774Z,0.00
2019-02-27T03:08:45.773Z,0.00
2019-02-27T03:09:45.820Z,0.00
2019-02-27T03:10:45.853Z,0.00
2019-02-27T03:11:45.895Z,0.00
2019-02-27T03:12:45.954Z,0.00
2019-02-27T03:13:45.975Z,0.00
2019-02-27T03:14:46.017Z,0.00
2019-02-27T03:15:46.056Z,0.00
2019-02-27T03:16:46.097Z,0.00
2019-02-27T03:17:46.150Z,0.00
2019-02-27T03:18:46.171Z,0.00
2019-02-27T03:19:46.214Z,0.00
2019-02-27T03:20:51.875Z,0.00
2019-02-27T03:21:46.295Z,0.00
2019-02-27T03:22:46.351Z,0.00
2019-02-27T03:23:51.012Z,0.00
2019-02-27T03:24:46.412Z,0.00
2019-02-27T03:25:46.452Z,0.00
2019-02-27T03:26:51.835Z,0.00
2019-02-27T03:27:46.609Z,0.00
2019-02-27T03:28:46.580Z,0.00
2019-02-27T03:29:52.178Z,0.00
2019-02-27T03:30:46.647Z,0.00
2019-02-27T03:31:57.770Z,0.00
2019-02-27T03:32:46.760Z,0.00
2019-02-27T03:33:46.788Z,0.00
2019-02-27T03:34:50.467Z,0.00
2019-02-27T03:35:46.853Z,0.00
2019-02-27T03:36:46.883Z,0.00
2019-02-27T03:37:48.561Z,0.00
2019-02-27T03:38:47.003Z,0.00
2019-02-27T03:39:47.018Z,0.00
2019-02-27T03:40:48.169Z,0.00
2019-02-27T03:41:47.161Z,0.00
2019-02-27T03:42:47.127Z,0.00
2019-02-27T03:43:47.189Z,0.00
2019-02-27T03:44:47.202Z,0.00
2019-02-27T03:45:47.251Z,0.00
2019-02-27T03:46:47.292Z,0.00
2019-02-27T03:47:51.653Z,0.00
2019-02-27T03:48:47.489Z,0.00
2019-02-27T03:49:47.403Z,0.00
2019-02-27T03:50:49.927Z,0.00
2019-02-27T03:51:47.486Z,0.00
2019-02-27T03:52:47.525Z,0.00
2019-02-27T03:53:47.595Z,0.00
2019-02-27T03:54:48.561Z,0.00
2019-02-27T03:55:47.650Z,0.00
2019-02-27T03:56:47.679Z,0.00
2019-02-27T03:57:47.720Z,0.00
2019-02-27T03:58:47.768Z,0.00
2019-02-27T03:59:47.819Z,0.00
2019-02-27T04:00:49.835Z,0.00
2019-02-27T04:01:47.890Z,0.00
2019-02-27T04:02:47.929Z,0.00
2019-02-27T04:03:54.250Z,0.00
2019-02-27T04:04:48.025Z,0.00
2019-02-27T04:05:48.042Z,0.00
2019-02-27T04:06:48.082Z,0.00
2019-02-27T04:07:48.131Z,0.00
2019-02-27T04:08:48.154Z,0.00
2019-02-27T04:09:48.235Z,0.00
2019-02-27T04:10:48.244Z,0.00
2019-02-27T04:11:48.279Z,0.00
2019-02-27T04:12:51.358Z,0.00
2019-02-27T04:13:48.364Z,0.00
2019-02-27T04:14:48.411Z,0.00
2019-02-27T04:15:53.388Z,0.00
2019-02-27T04:16:48.554Z,0.00
2019-02-27T04:17:51.684Z,0.00
2019-02-27T04:18:48.555Z,0.00
2019-02-27T04:19:48.617Z,0.00
2019-02-27T04:20:50.700Z,0.00
2019-02-27T04:21:48.671Z,0.00
2019-02-27T04:22:48.719Z,0.00
2019-02-27T04:23:49.318Z,0.00
2019-02-27T04:24:48.812Z,0.00
2019-02-27T04:25:48.852Z,0.00
2019-02-27T04:26:48.871Z,0.00
2019-02-27T04:27:49.002Z,0.00
2019-02-27T04:28:48.953Z,0.00
2019-02-27T04:29:48.997Z,0.00
2019-02-27T04:30:51.397Z,0.00
2019-02-27T04:31:49.069Z,0.00
2019-02-27T04:32:49.112Z,0.00
2019-02-27T04:33:49.153Z,0.00
2019-02-27T04:34:49.337Z,0.00
2019-02-27T04:35:49.254Z,0.00
2019-02-27T04:36:49.270Z,0.00
2019-02-27T04:37:49.307Z,0.00
2019-02-27T04:38:49.351Z,0.00
2019-02-27T04:39:49.384Z,0.00
2019-02-27T04:40:49.456Z,0.00
2019-02-27T04:41:49.560Z,0.00
2019-02-27T04:42:49.512Z,0.00
2019-02-27T04:43:49.546Z,0.00
2019-02-27T04:44:49.583Z,0.00
2019-02-27T04:45:49.642Z,0.00
2019-02-27T04:46:49.685Z,0.00
2019-02-27T04:47:49.717Z,0.00
2019-02-27T04:48:49.742Z,0.00
2019-02-27T04:49:49.783Z,0.00
2019-02-27T04:50:49.823Z,0.00
2019-02-27T04:51:50.598Z,0.00
2019-02-27T04:52:49.906Z,0.00
2019-02-27T04:53:49.960Z,0.00
2019-02-27T04:54:49.985Z,0.00
2019-02-27T04:55:50.544Z,0.00
2019-02-27T04:56:50.080Z,0.00
2019-02-27T04:57:50.101Z,0.00
2019-02-27T04:58:50.136Z,0.00
2019-02-27T04:59:52.227Z,0.00
2019-02-27T05:00:50.249Z,0.00
2019-02-27T05:01:50.284Z,0.00
2019-02-27T05:02:50.456Z,0.00
2019-02-27T05:03:50.338Z,0.00
2019-02-27T05:04:50.382Z,0.00
2019-02-27T05:05:50.415Z,0.00
2019-02-27T05:06:50.471Z,0.00
2019-02-27T05:07:54.074Z,0.00
2019-02-27T05:08:50.530Z,0.00
2019-02-27T05:09:50.575Z,0.00
2019-02-27T05:10:50.613Z,0.00
2019-02-27T05:11:50.677Z,0.00
2019-02-27T05:12:50.697Z,0.00
2019-02-27T05:13:54.137Z,0.00
2019-02-27T05:14:50.815Z,0.00
2019-02-27T05:15:50.808Z,0.00
2019-02-27T05:16:50.872Z,0.00
2019-02-27T05:17:53.085Z,0.00
2019-02-27T05:18:50.936Z,0.00
2019-02-27T05:19:52.060Z,0.00
2019-02-27T05:20:51.004Z,0.00
2019-02-27T05:21:52.602Z,0.00
2019-02-27T05:22:51.083Z,0.00
2019-02-27T05:23:51.122Z,0.00
2019-02-27T05:24:51.162Z,0.00
2019-02-27T05:25:51.200Z,0.00
2019-02-27T05:26:51.273Z,0.00
2019-02-27T05:27:51.278Z,0.00
2019-02-27T05:28:51.319Z,0.00
2019-02-27T05:29:51.359Z,0.00
2019-02-27T05:30:51.398Z,0.00
2019-02-27T05:31:53.387Z,0.00
2019-02-27T05:32:51.497Z,0.00
2019-02-27T05:33:51.527Z,0.00
2019-02-27T05:34:51.565Z,0.00
2019-02-27T05:35:51.602Z,0.00
2019-02-27T05:36:51.632Z,0.00
2019-02-27T05:37:51.688Z,0.00
2019-02-27T05:38:51.713Z,0.00
2019-02-27T05:39:51.813Z,0.00
2019-02-27T05:40:51.789Z,0.00
2019-02-27T05:41:51.831Z,0.00
2019-02-27T05:42:51.894Z,0.00
2019-02-27T05:43:51.918Z,0.00
2019-02-27T05:44:55.574Z,0.00
2019-02-27T05:45:51.983Z,0.00
2019-02-27T05:46:52.026Z,0.00
2019-02-27T05:47:52.082Z,0.00
2019-02-27T05:48:53.378Z,0.00
2019-02-27T05:49:52.149Z,0.00
2019-02-27T05:50:52.185Z,0.00
2019-02-27T05:51:52.225Z,0.00
2019-02-27T05:52:52.282Z,0.00
2019-02-27T05:53:52.321Z,0.00
2019-02-27T05:54:52.349Z,0.00
2019-02-27T05:55:52.392Z,0.00
2019-02-27T05:56:52.418Z,0.00
2019-02-27T05:57:52.457Z,0.00
2019-02-27T05:58:55.945Z,0.00
2019-02-27T05:59:52.536Z,0.00
2019-02-27T06:00:52.584Z,0.00
2019-02-27T06:01:52.649Z,0.00
2019-02-27T06:02:52.656Z,0.00
2019-02-27T06:03:53.018Z,0.00
2019-02-27T06:04:52.736Z,5.63
2019-02-27T06:05:52.777Z,5.63
2019-02-27T06:06:52.811Z,5.63
2019-02-27T06:07:52.865Z,5.63
2019-02-27T06:08:52.912Z,5.63
2019-02-27T06:09:52.999Z,5.63
2019-02-27T06:10:56.004Z,5.63
2019-02-27T06:11:53.010Z,11.25
2019-02-27T06:12:53.046Z,11.25
2019-02-27T06:13:53.115Z,11.25
2019-02-27T06:14:55.024Z,11.25
2019-02-27T06:15:53.250Z,11.25
2019-02-27T06:16:53.206Z,16.88
2019-02-27T06:17:53.257Z,16.88
2019-02-27T06:18:56.076Z,16.88
2019-02-27T06:19:53.342Z,16.88
2019-02-27T06:20:53.365Z,16.88
2019-02-27T06:21:56.042Z,22.50
2019-02-27T06:22:53.496Z,22.50
2019-02-27T06:23:53.486Z,22.50
2019-02-27T06:24:53.550Z,22.50
2019-02-27T06:25:59.117Z,28.13
2019-02-27T06:26:53.611Z,28.13
2019-02-27T06:27:53.662Z,28.13
2019-02-27T06:28:53.688Z,28.13
2019-02-27T06:29:56.831Z,33.75
2019-02-27T06:30:53.763Z,33.75
2019-02-27T06:31:53.792Z,33.75
2019-02-27T06:32:53.836Z,33.75
2019-02-27T06:33:53.880Z,39.38
2019-02-27T06:34:53.936Z,39.38
2019-02-27T06:35:53.956Z,39.38
2019-02-27T06:36:53.997Z,39.38
2019-02-27T06:37:54.041Z,45.00
2019-02-27T06:38:54.076Z,45.00
2019-02-27T06:39:54.236Z,45.00
2019-02-27T06:40:54.181Z,50.63
2019-02-27T06:41:54.198Z,50.63
2019-02-27T06:42:54.786Z,50.63
2019-02-27T06:43:54.279Z,50.63
2019-02-27T06:44:54.308Z,50.63
2019-02-27T06:45:54.415Z,50.63
2019-02-27T06:46:54.712Z,50.63
2019-02-27T06:47:54.432Z,50.63
2019-02-27T06:48:56.371Z,50.63
2019-02-27T06:49:54.517Z,50.63
2019-02-27T06:50:54.573Z,56.25
2019-02-27T06:51:54.589Z,56.25
2019-02-27T06:52:54.634Z,56.25
2019-02-27T06:53:54.670Z,56.25
2019-02-27T06:54:54.711Z,56.25
2019-02-27T06:55:54.771Z,56.25
2019-02-27T06:56:54.790Z,61.88
2019-02-27T06:57:54.829Z,61.88
2019-02-27T06:58:54.868Z,61.88
2019-02-27T06:59:59.397Z,61.88
2019-02-27T07:00:55.088Z,61.88
2019-02-27T07:01:54.994Z,67.50
2019-02-27T07:02:55.456Z,67.50
2019-02-27T07:03:55.083Z,67.50
2019-02-27T07:04:55.109Z,67.50
2019-02-27T07:05:55.197Z,73.13
2019-02-27T07:06:55.948Z,73.13
2019-02-27T07:07:55.234Z,73.13
2019-02-27T07:08:55.274Z,84.38
2019-02-27T07:09:55.321Z,78.75
2019-02-27T07:10:57.439Z,73.13
2019-02-27T07:11:55.403Z,73.13
2019-02-27T07:12:55.463Z,78.75
2019-02-27T07:13:55.474Z,78.75
2019-02-27T07:14:55.518Z,78.75
2019-02-27T07:15:55.696Z,84.38
2019-02-27T07:16:57.315Z,78.75
2019-02-27T07:17:55.642Z,78.75
2019-02-27T07:18:55.686Z,84.38
2019-02-27T07:19:55.722Z,84.38
2019-02-27T07:20:58.181Z,90.00
2019-02-27T07:21:55.821Z,90.00
2019-02-27T07:22:55.847Z,90.00
2019-02-27T07:23:58.528Z,90.00
2019-02-27T07:24:55.926Z,95.63
2019-02-27T07:25:55.965Z,106.88
2019-02-27T07:26:56.038Z,112.50
2019-02-27T07:27:56.051Z,101.25
2019-02-27T07:28:56.104Z,95.63
2019-02-27T07:29:56.138Z,95.63
2019-02-27T07:30:56.181Z,101.25
2019-02-27T07:31:57.192Z,101.25
2019-02-27T07:32:56.345Z,101.25
2019-02-27T07:33:56.300Z,101.25
2019-02-27T07:34:56.338Z,101.25
2019-02-27T07:35:56.379Z,101.25
2019-02-27T07:36:56.460Z,106.88
2019-02-27T07:37:56.462Z,112.50
2019-02-27T07:38:57.467Z,112.50
2019-02-27T07:39:56.556Z,112.50
2019-02-27T07:40:56.591Z,140.63
2019-02-27T07:41:56.648Z,168.75
2019-02-27T07:42:56.691Z,196.88
2019-02-27T07:43:56.711Z,213.75
2019-02-27T07:44:56.766Z,230.63
2019-02-27T07:45:56.806Z,236.25
2019-02-27T07:46:57.578Z,241.88
2019-02-27T07:47:57.184Z,247.50
2019-02-27T07:48:57.321Z,253.13
2019-02-27T07:49:56.971Z,253.13
2019-02-27T07:50:57.015Z,258.75
2019-02-27T07:51:57.950Z,264.38
2019-02-27T07:52:57.099Z,264.38
2019-02-27T07:53:57.150Z,270.00
2019-02-27T07:54:57.195Z,270.00
2019-02-27T07:55:57.238Z,270.00
2019-02-27T07:56:57.304Z,281.25
2019-02-27T07:57:58.693Z,236.25
2019-02-27T07:58:57.370Z,236.25
2019-02-27T07:59:57.418Z,286.88
2019-02-27T08:00:57.473Z,315.00
2019-02-27T08:01:57.512Z,315.00
2019-02-27T08:02:57.576Z,326.25
2019-02-27T08:03:57.598Z,331.88
2019-02-27T08:04:57.643Z,343.13
2019-02-27T08:05:59.892Z,348.75
2019-02-27T08:06:57.749Z,354.38
2019-02-27T08:07:58.105Z,354.38
2019-02-27T08:08:57.873Z,360.00
2019-02-27T08:09:57.879Z,371.25
2019-02-27T08:10:57.929Z,382.50
2019-02-27T08:11:57.993Z,388.13
2019-02-27T08:12:58.035Z,388.13
2019-02-27T08:13:58.063Z,393.75
2019-02-27T08:14:59.737Z,388.13
2019-02-27T08:15:58.188Z,388.13
2019-02-27T08:16:58.228Z,399.38
2019-02-27T08:17:58.737Z,410.63
2019-02-27T08:18:58.319Z,393.75
2019-02-27T08:19:58.349Z,388.13
2019-02-27T08:20:58.408Z,399.38
2019-02-27T08:21:58.464Z,421.88
2019-02-27T08:22:58.538Z,427.50
2019-02-27T08:23:58.599Z,438.75
2019-02-27T08:24:58.589Z,461.25
2019-02-27T08:25:58.643Z,466.88
2019-02-27T08:26:58.698Z,472.50
2019-02-27T08:27:58.780Z,489.38
2019-02-27T08:28:58.784Z,495.00
2019-02-27T08:29:59.881Z,511.88
2019-02-27T08:30:58.881Z,517.50
2019-02-27T08:32:01.120Z,517.50
2019-02-27T08:32:59.011Z,517.50
2019-02-27T08:33:59.056Z,534.38
2019-02-27T08:34:59.072Z,551.25
2019-02-27T08:35:59.129Z,556.88
2019-02-27T08:36:59.170Z,556.88
2019-02-27T08:38:02.486Z,562.50
2019-02-27T08:38:59.288Z,551.25
2019-02-27T08:39:59.318Z,556.88
2019-02-27T08:40:59.393Z,551.25
2019-02-27T08:42:03.334Z,556.88
2019-02-27T08:42:59.472Z,562.50
2019-02-27T08:43:59.552Z,568.13
2019-02-27T08:44:59.558Z,568.13
2019-02-27T08:46:02.087Z,601.88
2019-02-27T08:46:59.658Z,613.13
2019-02-27T08:47:59.708Z,607.50
2019-02-27T08:48:59.896Z,613.13
2019-02-27T08:49:59.806Z,618.75
2019-02-27T08:50:59.855Z,618.75
2019-02-27T08:51:59.896Z,624.38
2019-02-27T08:52:59.947Z,630.00
2019-02-27T08:54:00.037Z,635.63
2019-02-27T08:55:00.047Z,652.50
2019-02-27T08:56:00.162Z,646.88
2019-02-27T08:57:00.143Z,652.50
2019-02-27T08:58:00.212Z,669.38
2019-02-27T08:59:04.847Z,669.38
2019-02-27T09:00:00.333Z,675.00
2019-02-27T09:01:00.342Z,680.63
2019-02-27T09:02:00.392Z,680.63
2019-02-27T09:03:02.856Z,686.25
2019-02-27T09:04:00.490Z,691.88
2019-02-27T09:05:00.571Z,703.13
2019-02-27T09:06:00.603Z,720.00
2019-02-27T09:07:02.844Z,731.25
2019-02-27T09:08:00.699Z,742.50
2019-02-27T09:09:00.743Z,742.50
2019-02-27T09:10:00.828Z,748.13
2019-02-27T09:11:05.589Z,753.75
2019-02-27T09:12:03.069Z,748.13
2019-02-27T09:13:05.272Z,753.75
2019-02-27T09:14:01.005Z,753.75
2019-02-27T09:15:01.044Z,759.38
2019-02-27T09:16:01.115Z,770.63
2019-02-27T09:17:01.150Z,765.00
2019-02-27T09:18:01.802Z,787.50
2019-02-27T09:19:01.256Z,787.50
2019-02-27T09:20:01.331Z,798.75
2019-02-27T09:21:01.354Z,815.63
2019-02-27T09:22:02.420Z,838.13
2019-02-27T09:23:01.452Z,832.50
2019-02-27T09:24:01.507Z,838.13
2019-02-27T09:25:01.585Z,838.13
2019-02-27T09:26:02.710Z,838.13
2019-02-27T09:27:01.653Z,838.13
2019-02-27T09:28:03.445Z,843.75
2019-02-27T09:29:01.755Z,849.38
2019-02-27T09:30:02.775Z,860.63
2019-02-27T09:31:04.322Z,860.63
2019-02-27T09:32:01.900Z,866.25
2019-02-27T09:33:01.946Z,883.13
2019-02-27T09:34:01.998Z,883.13
2019-02-27T09:35:02.067Z,888.75
2019-02-27T09:36:02.119Z,905.63
2019-02-27T09:37:02.615Z,916.88
2019-02-27T09:38:02.203Z,916.88
2019-02-27T09:39:02.262Z,922.50
2019-02-27T09:40:05.058Z,922.50
2019-02-27T09:41:02.371Z,922.50
2019-02-27T09:42:02.399Z,933.75
2019-02-27T09:43:02.448Z,945.00
2019-02-27T09:44:02.550Z,950.63
2019-02-27T09:45:02.547Z,973.13
2019-02-27T09:46:02.622Z,978.75
2019-02-27T09:47:02.669Z,984.38
2019-02-27T09:48:02.724Z,995.63
2019-02-27T09:49:06.867Z,1012.50
2019-02-27T09:50:02.798Z,1012.50
2019-02-27T09:51:02.887Z,1018.13
2019-02-27T09:52:02.925Z,1018.13
2019-02-27T09:53:03.611Z,1012.50
2019-02-27T09:54:03.013Z,1006.88
2019-02-27T09:55:03.056Z,1006.88
2019-02-27T09:56:03.114Z,1018.13
2019-02-27T09:57:03.173Z,1023.75
2019-02-27T09:58:03.200Z,1029.38
2019-02-27T09:59:03.250Z,1029.38
2019-02-27T10:00:03.301Z,1035.00
2019-02-27T10:01:03.347Z,1040.63
2019-02-27T10:02:06.272Z,1040.63
2019-02-27T10:03:03.455Z,1057.50
2019-02-27T10:04:03.509Z,1057.50
2019-02-27T10:05:03.891Z,1051.88
2019-02-27T10:06:03.602Z,1057.50
2019-02-27T10:07:03.676Z,1074.38
2019-02-27T10:08:03.708Z,1080.00
2019-02-27T10:09:03.866Z,1096.88
2019-02-27T10:10:03.805Z,1108.13
2019-02-27T10:11:03.860Z,1102.50
2019-02-27T10:12:03.925Z,1119.38
2019-02-27T10:13:04.119Z,1125.00
2019-02-27T10:14:04.004Z,1130.63
2019-02-27T10:15:04.061Z,1141.88
2019-02-27T10:16:04.111Z,1153.13
2019-02-27T10:17:06.825Z,1158.75
2019-02-27T10:18:04.330Z,1164.38
2019-02-27T10:19:04.261Z,1158.75
2019-02-27T10:20:04.313Z,1158.75
2019-02-27T10:21:04.361Z,1158.75
2019-02-27T10:22:04.418Z,1158.75
2019-02-27T10:23:04.488Z,1158.75
2019-02-27T10:24:04.987Z,1158.75
2019-02-27T10:25:04.569Z,1164.38
2019-02-27T10:26:04.623Z,1153.13
2019-02-27T10:27:04.693Z,1158.75
2019-02-27T10:28:04.916Z,1158.75
2019-02-27T10:29:04.779Z,1153.13
2019-02-27T10:30:11.354Z,1158.75
2019-02-27T10:31:04.873Z,1153.13
2019-02-27T10:32:04.930Z,1153.13
2019-02-27T10:33:05.002Z,1158.75
2019-02-27T10:34:05.034Z,1164.38
2019-02-27T10:35:05.080Z,1175.63
2019-02-27T10:36:05.237Z,1181.25
2019-02-27T10:37:05.228Z,1192.50
2019-02-27T10:38:05.256Z,1192.50
2019-02-27T10:39:05.320Z,1203.75
2019-02-27T10:40:05.333Z,1198.13
2019-02-27T10:41:05.386Z,1209.38
2019-02-27T10:42:05.436Z,1226.25
2019-02-27T10:43:05.567Z,1243.13
2019-02-27T10:44:05.562Z,1243.13
2019-02-27T10:45:09.715Z,1265.63
2019-02-27T10:46:05.643Z,1265.63
2019-02-27T10:47:05.700Z,1271.25
2019-02-27T10:48:05.757Z,1276.88
2019-02-27T10:49:05.818Z,1276.88
2019-02-27T10:50:05.844Z,1276.88
2019-02-27T10:51:05.909Z,1265.63
2019-02-27T10:52:05.958Z,1248.75
2019-02-27T10:53:06.001Z,1237.50
2019-02-27T10:54:06.079Z,1215.00
2019-02-27T10:55:06.105Z,1220.63
2019-02-27T10:56:06.151Z,1215.00
2019-02-27T10:57:06.224Z,1209.38
2019-02-27T10:58:07.701Z,1209.38
2019-02-27T10:59:06.326Z,1203.75
2019-02-27T11:00:06.361Z,1198.13
2019-02-27T11:01:06.412Z,1198.13
2019-02-27T11:02:06.457Z,1198.13
2019-02-27T11:03:06.509Z,1198.13
2019-02-27T11:04:06.591Z,1220.63
2019-02-27T11:05:06.612Z,1220.63
2019-02-27T11:06:06.660Z,1226.25
2019-02-27T11:07:06.718Z,1226.25
2019-02-27T11:08:06.765Z,1226.25
2019-02-27T11:09:06.840Z,1243.13
2019-02-27T11:10:06.888Z,1243.13
2019-02-27T11:11:08.664Z,1243.13
2019-02-27T11:12:06.969Z,1271.25
2019-02-27T11:13:07.162Z,1282.50
2019-02-27T11:14:07.075Z,1293.75
2019-02-27T11:15:08.171Z,1293.75
2019-02-27T11:16:07.181Z,1282.50
2019-02-27T11:17:07.233Z,1260.00
2019-02-27T11:18:07.277Z,1248.75
2019-02-27T11:19:07.334Z,1237.50
2019-02-27T11:20:07.413Z,1226.25
2019-02-27T11:21:07.427Z,1220.63
2019-02-27T11:22:07.480Z,1231.88
2019-02-27T11:23:07.796Z,1237.50
2019-02-27T11:24:07.611Z,1231.88
2019-02-27T11:25:07.679Z,1231.88
2019-02-27T11:26:07.686Z,1237.50
2019-02-27T11:27:07.740Z,1226.25
2019-02-27T11:28:07.798Z,1220.63
2019-02-27T11:29:07.842Z,1237.50
2019-02-27T11:30:07.917Z,1237.50
2019-02-27T11:31:08.410Z,1248.75
2019-02-27T11:32:07.999Z,1254.38
2019-02-27T11:33:08.053Z,1243.13
2019-02-27T11:34:08.480Z,1237.50
2019-02-27T11:35:08.164Z,1220.63
2019-02-27T11:36:08.238Z,1215.00
2019-02-27T11:37:12.711Z,1215.00
2019-02-27T11:38:08.321Z,1226.25
2019-02-27T11:39:08.371Z,1237.50
2019-02-27T11:40:08.481Z,1243.13
2019-02-27T11:41:08.493Z,1248.75
2019-02-27T11:42:08.534Z,1248.75
2019-02-27T11:43:08.580Z,1237.50
2019-02-27T11:44:08.632Z,1226.25
2019-02-27T11:45:08.675Z,1209.38
2019-02-27T11:46:08.746Z,1192.50
2019-02-27T11:47:11.019Z,1170.00
2019-02-27T11:48:08.828Z,1158.75
2019-02-27T11:49:08.956Z,1153.13
2019-02-27T11:50:08.933Z,1147.50
2019-02-27T11:51:09.016Z,1158.75
2019-02-27T11:52:09.038Z,1175.63
2019-02-27T11:53:09.108Z,1186.88
2019-02-27T11:54:09.248Z,1198.13
2019-02-27T11:55:09.196Z,1192.50
2019-02-27T11:56:09.269Z,1198.13
2019-02-27T11:57:09.299Z,1198.13
2019-02-27T11:58:09.352Z,1203.75
2019-02-27T11:59:10.255Z,1203.75
2019-02-27T12:00:09.458Z,1181.25
2019-02-27T12:01:09.553Z,1181.25
2019-02-27T12:02:09.561Z,1170.00
2019-02-27T12:03:11.180Z,1170.00
2019-02-27T12:04:09.670Z,1170.00
2019-02-27T12:05:09.719Z,1192.50
2019-02-27T12:06:09.799Z,1186.88
2019-02-27T12:07:09.827Z,1186.88
2019-02-27T12:08:11.336Z,1170.00
2019-02-27T12:09:09.939Z,1158.75
2019-02-27T12:10:09.988Z,1153.13
2019-02-27T12:11:13.253Z,1147.50
2019-02-27T12:12:10.500Z,1147.50
2019-02-27T12:13:10.144Z,1153.13
2019-02-27T12:14:10.256Z,1147.50
2019-02-27T12:15:10.249Z,1164.38
2019-02-27T12:16:10.725Z,1158.75
2019-02-27T12:17:10.354Z,1170.00
2019-02-27T12:18:10.407Z,1186.88
2019-02-27T12:19:10.465Z,1170.00
2019-02-27T12:20:10.525Z,1164.38
2019-02-27T12:21:10.598Z,1153.13
2019-02-27T12:22:10.633Z,1136.25
2019-02-27T12:23:10.822Z,1147.50
2019-02-27T12:24:10.734Z,1136.25
2019-02-27T12:25:10.792Z,1136.25
2019-02-27T12:26:10.840Z,1119.38
2019-02-27T12:27:24.327Z,1119.38
2019-02-27T12:28:10.948Z,1130.63
2019-02-27T12:29:11.046Z,1130.63
2019-02-27T12:30:11.058Z,1125.00
2019-02-27T12:31:14.152Z,1130.63
2019-02-27T12:32:11.189Z,1130.63
2019-02-27T12:33:11.229Z,1136.25
2019-02-27T12:34:11.327Z,1136.25
2019-02-27T12:35:11.465Z,1125.00
2019-02-27T12:36:11.402Z,1119.38
2019-02-27T12:37:23.785Z,1113.75
2019-02-27T12:38:11.531Z,1096.88
2019-02-27T12:39:15.271Z,1113.75
2019-02-27T12:40:11.612Z,1091.25
2019-02-27T12:41:11.682Z,1080.00
2019-02-27T12:42:11.722Z,1068.75
2019-02-27T12:43:17.401Z,1068.75
2019-02-27T12:44:11.834Z,1063.13
2019-02-27T12:45:11.927Z,1057.50
2019-02-27T12:46:11.942Z,1051.88
2019-02-27T12:47:12.005Z,1051.88
2019-02-27T12:48:12.572Z,1046.25
2019-02-27T12:49:12.108Z,1040.63